sensor_id;sensor_type;location;lat;lon;timestamp;pressure;altitude;pressure_sealevel;temperature;humidity
21086;BME280;34247;50.064;19.970;2023-05-12T00:00:16;99474.00;;;13.52;50.53
21086;BME280;34247;50.064;19.970;2023-05-12T00:01:21;99480.31;;;13.51;51.09
21086;BME280;34247;50.064;19.970;2023-05-12T00:02:26;99481.88;;;13.54;51.05
21086;BME280;34247;50.064;19.970;2023-05-12T00:03:30;99482.66;;;13.56;50.79
21086;BME280;34247;50.064;19.970;2023-05-12T00:04:35;99479.34;;;13.52;50.77
21086;BME280;34247;50.064;19.970;2023-05-12T00:05:40;99481.28;;;13.50;50.65
21086;BME280;34247;50.064;19.970;2023-05-12T00:06:44;99477.66;;;13.51;50.93
21086;BME280;34247;50.064;19.970;2023-05-12T00:07:49;99480.56;;;13.48;51.26
21086;BME280;34247;50.064;19.970;2023-05-12T00:08:53;99475.25;;;13.48;51.12
21086;BME280;34247;50.064;19.970;2023-05-12T00:09:57;99479.59;;;13.49;50.79
21086;BME280;34247;50.064;19.970;2023-05-12T00:11:01;99473.28;;;13.50;51.08
21086;BME280;34247;50.064;19.970;2023-05-12T00:12:07;99476.94;;;13.49;51.23
21086;BME280;34247;50.064;19.970;2023-05-12T00:13:12;99476.56;;;13.43;51.18
21086;BME280;34247;50.064;19.970;2023-05-12T00:14:16;99477.41;;;13.43;51.15
21086;BME280;34247;50.064;19.970;2023-05-12T00:15:20;99479.81;;;13.46;51.04
21086;BME280;34247;50.064;19.970;2023-05-12T00:16:24;99470.25;;;13.44;51.08
21086;BME280;34247;50.064;19.970;2023-05-12T00:17:28;99471.44;;;13.40;51.41
21086;BME280;34247;50.064;19.970;2023-05-12T00:18:33;99469.75;;;13.39;51.26
21086;BME280;34247;50.064;19.970;2023-05-12T00:19:37;99474.97;;;13.40;51.41
21086;BME280;34247;50.064;19.970;2023-05-12T00:20:43;99476.03;;;13.38;51.69
21086;BME280;34247;50.064;19.970;2023-05-12T00:21:48;99475.91;;;13.39;51.02
21086;BME280;34247;50.064;19.970;2023-05-12T00:22:53;99473.38;;;13.38;51.61
21086;BME280;34247;50.064;19.970;2023-05-12T00:23:57;99469.03;;;13.37;51.31
21086;BME280;34247;50.064;19.970;2023-05-12T00:25:01;99472.78;;;13.34;51.79
21086;BME280;34247;50.064;19.970;2023-05-12T00:26:05;99473.50;;;13.36;51.68
21086;BME280;34247;50.064;19.970;2023-05-12T00:27:09;99468.91;;;13.38;51.66
21086;BME280;34247;50.064;19.970;2023-05-12T00:28:13;99474.94;;;13.29;51.98
21086;BME280;34247;50.064;19.970;2023-05-12T00:29:17;99472.28;;;13.29;51.95
21086;BME280;34247;50.064;19.970;2023-05-12T00:30:21;99473.25;;;13.28;51.70
21086;BME280;34247;50.064;19.970;2023-05-12T00:31:25;99474.44;;;13.24;52.05
21086;BME280;34247;50.064;19.970;2023-05-12T00:32:30;99476.50;;;13.20;51.90
21086;BME280;34247;50.064;19.970;2023-05-12T00:33:33;99484.06;;;13.14;52.53
21086;BME280;34247;50.064;19.970;2023-05-12T00:34:38;99479.72;;;13.13;52.11
21086;BME280;34247;50.064;19.970;2023-05-12T00:35:42;99480.56;;;13.13;52.38
21086;BME280;34247;50.064;19.970;2023-05-12T00:36:48;99479.72;;;13.13;52.24
21086;BME280;34247;50.064;19.970;2023-05-12T00:37:52;99478.03;;;13.12;52.40
21086;BME280;34247;50.064;19.970;2023-05-12T00:38:56;99477.91;;;13.13;52.49
21086;BME280;34247;50.064;19.970;2023-05-12T00:40:01;99478.22;;;13.09;52.63
21086;BME280;34247;50.064;19.970;2023-05-12T00:41:05;99476.28;;;13.11;52.27
21086;BME280;34247;50.064;19.970;2023-05-12T00:42:11;99473.88;;;13.08;52.76
21086;BME280;34247;50.064;19.970;2023-05-12T00:43:16;99478.47;;;13.06;52.44
21086;BME280;34247;50.064;19.970;2023-05-12T00:44:20;99481.88;;;13.08;52.52
21086;BME280;34247;50.064;19.970;2023-05-12T00:45:25;99478.34;;;13.07;52.32
21086;BME280;34247;50.064;19.970;2023-05-12T00:46:30;99486.47;;;13.06;52.55
21086;BME280;34247;50.064;19.970;2023-05-12T00:47:34;99477.00;;;13.02;52.90
21086;BME280;34247;50.064;19.970;2023-05-12T00:48:38;99481.47;;;13.01;52.85
21086;BME280;34247;50.064;19.970;2023-05-12T00:49:43;99478.69;;;13.03;52.76
21086;BME280;34247;50.064;19.970;2023-05-12T00:50:47;99481.72;;;12.98;52.80
21086;BME280;34247;50.064;19.970;2023-05-12T00:51:54;99483.03;;;12.92;53.15
21086;BME280;34247;50.064;19.970;2023-05-12T00:53:00;99484.72;;;12.93;53.12
21086;BME280;34247;50.064;19.970;2023-05-12T00:54:04;99485.56;;;12.94;53.20
21086;BME280;34247;50.064;19.970;2023-05-12T00:55:09;99484.97;;;12.90;53.45
21086;BME280;34247;50.064;19.970;2023-05-12T00:56:14;99479.72;;;12.89;53.29
21086;BME280;34247;50.064;19.970;2023-05-12T00:57:24;99480.69;;;12.88;53.53
21086;BME280;34247;50.064;19.970;2023-05-12T00:58:28;99480.94;;;12.85;53.34
21086;BME280;34247;50.064;19.970;2023-05-12T00:59:33;99486.88;;;12.88;53.22
21086;BME280;34247;50.064;19.970;2023-05-12T01:00:37;99487.72;;;12.89;53.11
21086;BME280;34247;50.064;19.970;2023-05-12T01:01:41;99488.59;;;12.89;52.96
21086;BME280;34247;50.064;19.970;2023-05-12T01:02:45;99487.72;;;12.89;53.51
21086;BME280;34247;50.064;19.970;2023-05-12T01:03:50;99486.78;;;12.90;53.27
21086;BME280;34247;50.064;19.970;2023-05-12T01:04:55;99483.16;;;12.91;52.81
21086;BME280;34247;50.064;19.970;2023-05-12T01:06:12;99491.47;;;12.86;53.67
21086;BME280;34247;50.064;19.970;2023-05-12T01:07:21;99491.47;;;12.86;52.98
21086;BME280;34247;50.064;19.970;2023-05-12T01:08:28;99492.69;;;12.82;53.29
21086;BME280;34247;50.064;19.970;2023-05-12T01:09:32;99485.97;;;12.77;53.28
21086;BME280;34247;50.064;19.970;2023-05-12T01:10:36;99488.66;;;12.77;53.60
21086;BME280;34247;50.064;19.970;2023-05-12T01:11:40;99488.78;;;12.75;53.72
21086;BME280;34247;50.064;19.970;2023-05-12T01:12:44;99491.63;;;12.72;53.52
21086;BME280;34247;50.064;19.970;2023-05-12T01:13:48;99484.09;;;12.66;54.29
21086;BME280;34247;50.064;19.970;2023-05-12T01:14:54;99488.47;;;12.67;53.71
21086;BME280;34247;50.064;19.970;2023-05-12T01:16:01;99487.53;;;12.68;53.99
21086;BME280;34247;50.064;19.970;2023-05-12T01:17:11;99491.59;;;12.61;54.14
21086;BME280;34247;50.064;19.970;2023-05-12T01:18:20;99490.34;;;12.54;54.24
21086;BME280;34247;50.064;19.970;2023-05-12T01:19:46;99489.59;;;12.52;54.58
21086;BME280;34247;50.064;19.970;2023-05-12T01:20:54;99491.06;;;12.56;54.52
21086;BME280;34247;50.064;19.970;2023-05-12T01:22:01;99495.66;;;12.54;54.25
21086;BME280;34247;50.064;19.970;2023-05-12T01:23:05;99487.88;;;12.51;54.62
21086;BME280;34247;50.064;19.970;2023-05-12T01:24:14;99492.16;;;12.53;54.68
21086;BME280;34247;50.064;19.970;2023-05-12T01:25:23;99494.91;;;12.52;54.57
21086;BME280;34247;50.064;19.970;2023-05-12T01:26:27;99501.44;;;12.48;54.62
21086;BME280;34247;50.064;19.970;2023-05-12T01:27:33;99507.94;;;12.43;54.95
21086;BME280;34247;50.064;19.970;2023-05-12T01:28:39;99504.53;;;12.41;54.82
21086;BME280;34247;50.064;19.970;2023-05-12T01:29:47;99502.97;;;12.39;54.89
21086;BME280;34247;50.064;19.970;2023-05-12T01:30:52;99509.34;;;12.36;55.19
21086;BME280;34247;50.064;19.970;2023-05-12T01:31:58;99497.84;;;12.36;55.01
21086;BME280;34247;50.064;19.970;2023-05-12T01:33:03;99507.97;;;12.31;55.38
21086;BME280;34247;50.064;19.970;2023-05-12T01:34:08;99504.38;;;12.32;55.66
21086;BME280;34247;50.064;19.970;2023-05-12T01:35:17;99504.13;;;12.35;55.25
21086;BME280;34247;50.064;19.970;2023-05-12T01:36:21;99506.91;;;12.33;55.55
21086;BME280;34247;50.064;19.970;2023-05-12T01:37:25;99509.56;;;12.33;55.17
21086;BME280;34247;50.064;19.970;2023-05-12T01:38:30;99511.69;;;12.28;55.25
21086;BME280;34247;50.064;19.970;2023-05-12T01:39:35;99518.94;;;12.26;55.65
21086;BME280;34247;50.064;19.970;2023-05-12T01:40:39;99521.09;;;12.21;55.98
21086;BME280;34247;50.064;19.970;2023-05-12T01:41:44;99523.75;;;12.21;56.16
21086;BME280;34247;50.064;19.970;2023-05-12T01:42:49;99518.84;;;12.15;56.26
21086;BME280;34247;50.064;19.970;2023-05-12T01:43:53;99518.00;;;12.14;56.14
21086;BME280;34247;50.064;19.970;2023-05-12T01:44:57;99516.97;;;12.17;56.07
21086;BME280;34247;50.064;19.970;2023-05-12T01:46:01;99518.66;;;12.18;55.94
21086;BME280;34247;50.064;19.970;2023-05-12T01:47:05;99515.13;;;12.18;56.04
21086;BME280;34247;50.064;19.970;2023-05-12T01:48:12;99521.50;;;12.15;56.48
21086;BME280;34247;50.064;19.970;2023-05-12T01:49:16;99521.50;;;12.15;55.95
21086;BME280;34247;50.064;19.970;2023-05-12T01:50:21;99517.16;;;12.14;56.10
21086;BME280;34247;50.064;19.970;2023-05-12T01:51:25;99520.78;;;12.13;56.20
21086;BME280;34247;50.064;19.970;2023-05-12T01:52:29;99515.56;;;12.11;56.05
21086;BME280;34247;50.064;19.970;2023-05-12T01:53:34;99512.06;;;12.11;56.53
21086;BME280;34247;50.064;19.970;2023-05-12T01:54:38;99516.53;;;12.10;56.24
21086;BME280;34247;50.064;19.970;2023-05-12T01:55:41;99521.00;;;12.10;56.20
21086;BME280;34247;50.064;19.970;2023-05-12T01:56:46;99511.22;;;12.10;56.31
21086;BME280;34247;50.064;19.970;2023-05-12T01:57:54;99517.47;;;12.09;56.53
21086;BME280;34247;50.064;19.970;2023-05-12T01:58:57;99513.97;;;12.09;56.54
21086;BME280;34247;50.064;19.970;2023-05-12T02:00:02;99510.38;;;12.10;56.30
21086;BME280;34247;50.064;19.970;2023-05-12T02:01:06;99513.09;;;12.08;56.62
21086;BME280;34247;50.064;19.970;2023-05-12T02:02:11;99519.50;;;12.06;56.93
21086;BME280;34247;50.064;19.970;2023-05-12T02:03:15;99512.50;;;12.05;56.55
21086;BME280;34247;50.064;19.970;2023-05-12T02:04:20;99513.56;;;12.02;56.65
21086;BME280;34247;50.064;19.970;2023-05-12T02:05:24;99517.28;;;12.00;57.05
21086;BME280;34247;50.064;19.970;2023-05-12T02:06:28;99519.81;;;12.01;57.00
21086;BME280;34247;50.064;19.970;2023-05-12T02:07:32;99514.72;;;11.98;56.76
21086;BME280;34247;50.064;19.970;2023-05-12T02:08:36;99517.28;;;12.00;57.20
21086;BME280;34247;50.064;19.970;2023-05-12T02:09:40;99518.25;;;11.99;57.20
21086;BME280;34247;50.064;19.970;2023-05-12T02:10:44;99521.88;;;11.98;57.01
21086;BME280;34247;50.064;19.970;2023-05-12T02:11:49;99519.22;;;11.98;57.24
21086;BME280;34247;50.064;19.970;2023-05-12T02:12:58;99512.31;;;11.95;57.42
21086;BME280;34247;50.064;19.970;2023-05-12T02:14:02;99511.53;;;11.93;57.44
21086;BME280;34247;50.064;19.970;2023-05-12T02:15:06;99508.16;;;11.91;57.65
21086;BME280;34247;50.064;19.970;2023-05-12T02:16:11;99511.22;;;11.85;58.05
21086;BME280;34247;50.064;19.970;2023-05-12T02:17:16;99507.84;;;11.83;58.12
21086;BME280;34247;50.064;19.970;2023-05-12T02:18:20;99510.66;;;11.80;58.08
21086;BME280;34247;50.064;19.970;2023-05-12T02:19:24;99515.13;;;11.79;57.94
21086;BME280;34247;50.064;19.970;2023-05-12T02:20:28;99514.19;;;11.80;57.85
21086;BME280;34247;50.064;19.970;2023-05-12T02:21:32;99519.72;;;11.77;57.98
21086;BME280;34247;50.064;19.970;2023-05-12T02:22:37;99522.16;;;11.80;58.42
21086;BME280;34247;50.064;19.970;2023-05-12T02:23:44;99515.34;;;11.76;58.50
21086;BME280;34247;50.064;19.970;2023-05-12T02:24:49;99513.31;;;11.80;58.15
21086;BME280;34247;50.064;19.970;2023-05-12T02:25:56;99516.31;;;11.75;58.73
21086;BME280;34247;50.064;19.970;2023-05-12T02:27:00;99519.81;;;11.76;58.07
21086;BME280;34247;50.064;19.970;2023-05-12T02:28:04;99517.03;;;11.77;57.98
21086;BME280;34247;50.064;19.970;2023-05-12T02:29:14;99521.63;;;11.75;58.58
21086;BME280;34247;50.064;19.970;2023-05-12T02:30:19;99524.06;;;11.78;58.44
21086;BME280;34247;50.064;19.970;2023-05-12T02:31:24;99524.06;;;11.78;58.28
21086;BME280;34247;50.064;19.970;2023-05-12T02:32:30;99525.88;;;11.78;58.35
21086;BME280;34247;50.064;19.970;2023-05-12T02:33:34;99523.31;;;11.76;58.40
21086;BME280;34247;50.064;19.970;2023-05-12T02:34:38;99515.47;;;11.75;58.64
21086;BME280;34247;50.064;19.970;2023-05-12T02:35:43;99532.47;;;11.72;58.59
21086;BME280;34247;50.064;19.970;2023-05-12T02:36:48;99525.44;;;11.71;58.67
21086;BME280;34247;50.064;19.970;2023-05-12T02:37:52;99521.41;;;11.66;58.98
21086;BME280;34247;50.064;19.970;2023-05-12T02:38:56;99523.88;;;11.69;58.82
21086;BME280;34247;50.064;19.970;2023-05-12T02:40:00;99521.09;;;11.70;59.13
21086;BME280;34247;50.064;19.970;2023-05-12T02:41:04;99523.63;;;11.72;58.64
21086;BME280;34247;50.064;19.970;2023-05-12T02:42:08;99520.34;;;11.68;59.37
21086;BME280;34247;50.064;19.970;2023-05-12T02:43:12;99521.41;;;11.66;59.02
21086;BME280;34247;50.064;19.970;2023-05-12T02:44:16;99526.09;;;11.62;59.40
21086;BME280;34247;50.064;19.970;2023-05-12T02:45:21;99526.09;;;11.62;59.24
21086;BME280;34247;50.064;19.970;2023-05-12T02:46:26;99527.06;;;11.61;59.48
21086;BME280;34247;50.064;19.970;2023-05-12T02:47:32;99522.25;;;11.53;59.80
21086;BME280;34247;50.064;19.970;2023-05-12T02:48:37;99530.13;;;11.55;59.65
21086;BME280;34247;50.064;19.970;2023-05-12T02:49:41;99523.84;;;11.56;59.86
21086;BME280;34247;50.064;19.970;2023-05-12T02:50:45;99524.69;;;11.56;59.70
21086;BME280;34247;50.064;19.970;2023-05-12T02:51:50;99524.06;;;11.53;59.89
21086;BME280;34247;50.064;19.970;2023-05-12T02:52:55;99528.44;;;11.54;59.58
21086;BME280;34247;50.064;19.970;2023-05-12T02:53:59;99526.91;;;11.50;59.82
21086;BME280;34247;50.064;19.970;2023-05-12T02:55:04;99516.28;;;11.50;60.03
21086;BME280;34247;50.064;19.970;2023-05-12T02:56:08;99519.72;;;11.52;59.85
21086;BME280;34247;50.064;19.970;2023-05-12T02:57:13;99527.69;;;11.52;59.78
21086;BME280;34247;50.064;19.970;2023-05-12T02:58:17;99526.91;;;11.50;59.85
21086;BME280;34247;50.064;19.970;2023-05-12T02:59:21;99526.28;;;11.46;60.43
21086;BME280;34247;50.064;19.970;2023-05-12T03:00:25;99521.50;;;11.51;59.85
21086;BME280;34247;50.064;19.970;2023-05-12T03:01:30;99520.63;;;11.51;59.86
21086;BME280;34247;50.064;19.970;2023-05-12T03:02:36;99518.22;;;11.48;60.05
21086;BME280;34247;50.064;19.970;2023-05-12T03:03:44;99516.50;;;11.47;60.10
21086;BME280;34247;50.064;19.970;2023-05-12T03:04:48;99520.97;;;11.46;59.73
21086;BME280;34247;50.064;19.970;2023-05-12T03:05:52;99518.44;;;11.45;60.51
21086;BME280;34247;50.064;19.970;2023-05-12T03:06:56;99514.69;;;11.47;59.80
21086;BME280;34247;50.064;19.970;2023-05-12T03:08:00;99512.22;;;11.44;60.27
21086;BME280;34247;50.064;19.970;2023-05-12T03:09:07;99516.69;;;11.44;60.21
21086;BME280;34247;50.064;19.970;2023-05-12T03:10:12;99513.13;;;11.45;60.27
21086;BME280;34247;50.064;19.970;2023-05-12T03:11:16;99511.19;;;11.47;60.00
21086;BME280;34247;50.064;19.970;2023-05-12T03:12:20;99513.00;;;11.46;60.41
21086;BME280;34247;50.064;19.970;2023-05-12T03:13:25;99509.69;;;11.43;60.32
21086;BME280;34247;50.064;19.970;2023-05-12T03:14:30;99511.50;;;11.42;60.40
21086;BME280;34247;50.064;19.970;2023-05-12T03:15:34;99510.66;;;11.42;60.04
21086;BME280;34247;50.064;19.970;2023-05-12T03:16:39;99522.25;;;11.41;60.76
21086;BME280;34247;50.064;19.970;2023-05-12T03:17:43;99517.66;;;11.43;60.68
21086;BME280;34247;50.064;19.970;2023-05-12T03:18:47;99511.38;;;11.44;60.41
21086;BME280;34247;50.064;19.970;2023-05-12T03:19:51;99520.66;;;11.38;60.51
21086;BME280;34247;50.064;19.970;2023-05-12T03:20:58;99509.91;;;11.40;60.71
21086;BME280;34247;50.064;19.970;2023-05-12T03:22:03;99510.22;;;11.35;60.92
21086;BME280;34247;50.064;19.970;2023-05-12T03:23:07;99514.69;;;11.35;61.32
21086;BME280;34247;50.064;19.970;2023-05-12T03:24:11;99520.09;;;11.33;60.84
21086;BME280;34247;50.064;19.970;2023-05-12T03:25:15;99513.72;;;11.36;60.83
21086;BME280;34247;50.064;19.970;2023-05-12T03:26:19;99522.75;;;11.33;61.31
21086;BME280;34247;50.064;19.970;2023-05-12T03:27:23;99520.53;;;11.40;60.48
21086;BME280;34247;50.064;19.970;2023-05-12T03:28:28;99517.34;;;11.35;61.56
21086;BME280;34247;50.064;19.970;2023-05-12T03:29:32;99510.22;;;11.35;61.33
21086;BME280;34247;50.064;19.970;2023-05-12T03:30:36;99518.19;;;11.35;61.34
21086;BME280;34247;50.064;19.970;2023-05-12T03:31:40;99517.22;;;11.36;60.96
21086;BME280;34247;50.064;19.970;2023-05-12T03:32:44;99518.19;;;11.35;61.12
21086;BME280;34247;50.064;19.970;2023-05-12T03:33:49;99514.56;;;11.36;60.92
21086;BME280;34247;50.064;19.970;2023-05-12T03:34:54;99510.97;;;11.37;60.84
21086;BME280;34247;50.064;19.970;2023-05-12T03:36:05;99522.25;;;11.41;60.92
21086;BME280;34247;50.064;19.970;2023-05-12T03:37:10;99523.19;;;11.40;61.06
21086;BME280;34247;50.064;19.970;2023-05-12T03:38:15;99511.59;;;11.41;60.74
21086;BME280;34247;50.064;19.970;2023-05-12T03:39:20;99521.38;;;11.40;61.06
21086;BME280;34247;50.064;19.970;2023-05-12T03:40:26;99520.53;;;11.40;60.98
21086;BME280;34247;50.064;19.970;2023-05-12T03:41:30;99519.03;;;11.36;61.46
21086;BME280;34247;50.064;19.970;2023-05-12T03:42:34;99524.34;;;11.36;61.57
21086;BME280;34247;50.064;19.970;2023-05-12T03:43:38;99521.78;;;11.34;61.59
21086;BME280;34247;50.064;19.970;2023-05-12T03:44:43;99519.66;;;11.26;62.17
21086;BME280;34247;50.064;19.970;2023-05-12T03:45:47;99525.63;;;11.30;62.14
21086;BME280;34247;50.064;19.970;2023-05-12T03:46:52;99526.03;;;11.37;61.60
21086;BME280;34247;50.064;19.970;2023-05-12T03:47:56;99533.16;;;11.36;61.77
21086;BME280;34247;50.064;19.970;2023-05-12T03:49:00;99526.03;;;11.37;61.84
21086;BME280;34247;50.064;19.970;2023-05-12T03:50:05;99528.63;;;11.38;61.79
21086;BME280;34247;50.064;19.970;2023-05-12T03:51:10;99529.25;;;11.42;61.51
21086;BME280;34247;50.064;19.970;2023-05-12T03:52:14;99530.00;;;11.44;61.27
21086;BME280;34247;50.064;19.970;2023-05-12T03:53:19;99526.47;;;11.43;61.51
21086;BME280;34247;50.064;19.970;2023-05-12T03:54:26;99528.19;;;11.44;61.33
21086;BME280;34247;50.064;19.970;2023-05-12T03:55:30;99531.16;;;11.40;62.00
21086;BME280;34247;50.064;19.970;2023-05-12T03:56:34;99531.28;;;11.38;61.73
21086;BME280;34247;50.064;19.970;2023-05-12T03:57:39;99532.31;;;11.36;61.81
21086;BME280;34247;50.064;19.970;2023-05-12T03:58:45;99538.47;;;11.36;61.87
21086;BME280;34247;50.064;19.970;2023-05-12T03:59:52;99534.00;;;11.37;62.36
21086;BME280;34247;50.064;19.970;2023-05-12T04:01:00;99536.91;;;11.33;62.23
21086;BME280;34247;50.064;19.970;2023-05-12T04:02:04;99534.13;;;11.35;62.07
21086;BME280;34247;50.064;19.970;2023-05-12T04:03:10;99525.53;;;11.31;62.00
21086;BME280;34247;50.064;19.970;2023-05-12T04:04:14;99539.56;;;11.33;62.17
21086;BME280;34247;50.064;19.970;2023-05-12T04:05:19;99530.72;;;11.33;62.56
21086;BME280;34247;50.064;19.970;2023-05-12T04:06:24;99534.13;;;11.35;62.39
21086;BME280;34247;50.064;19.970;2023-05-12T04:07:28;99534.97;;;11.36;62.36
21086;BME280;34247;50.064;19.970;2023-05-12T04:08:33;99538.41;;;11.38;62.26
21086;BME280;34247;50.064;19.970;2023-05-12T04:09:37;99534.56;;;11.42;62.11
21086;BME280;34247;50.064;19.970;2023-05-12T04:10:42;99538.41;;;11.38;62.20
21086;BME280;34247;50.064;19.970;2023-05-12T04:11:46;99532.97;;;11.39;62.24
21086;BME280;34247;50.064;19.970;2023-05-12T04:12:51;99533.94;;;11.38;61.91
21086;BME280;34247;50.064;19.970;2023-05-12T04:13:56;99533.09;;;11.38;62.23
21086;BME280;34247;50.064;19.970;2023-05-12T04:15:01;99536.69;;;11.37;62.37
21086;BME280;34247;50.064;19.970;2023-05-12T04:16:05;99534.22;;;11.33;62.33
21086;BME280;34247;50.064;19.970;2023-05-12T04:17:10;99538.81;;;11.31;62.78
21086;BME280;34247;50.064;19.970;2023-05-12T04:18:16;99537.97;;;11.31;62.54
21086;BME280;34247;50.064;19.970;2023-05-12T04:19:23;99540.69;;;11.29;62.90
21086;BME280;34247;50.064;19.970;2023-05-12T04:20:27;99544.53;;;11.25;63.17
21086;BME280;34247;50.064;19.970;2023-05-12T04:21:31;99546.91;;;11.30;63.09
21086;BME280;34247;50.064;19.970;2023-05-12T04:22:36;99541.88;;;11.25;63.07
21086;BME280;34247;50.064;19.970;2023-05-12T04:23:40;99534.88;;;11.24;63.45
21086;BME280;34247;50.064;19.970;2023-05-12T04:24:43;99551.75;;;11.23;63.27
21086;BME280;34247;50.064;19.970;2023-05-12T04:25:48;99540.06;;;11.26;63.56
21086;BME280;34247;50.064;19.970;2023-05-12T04:26:52;99547.19;;;11.25;63.55
21086;BME280;34247;50.064;19.970;2023-05-12T04:27:57;99539.22;;;11.25;63.34
21086;BME280;34247;50.064;19.970;2023-05-12T04:29:03;99537.31;;;11.27;63.64
21086;BME280;34247;50.064;19.970;2023-05-12T04:30:08;99546.91;;;11.30;63.74
21086;BME280;34247;50.064;19.970;2023-05-12T04:31:15;99547.75;;;11.30;63.55
21086;BME280;34247;50.064;19.970;2023-05-12T04:32:18;99547.53;;;11.33;63.59
21086;BME280;34247;50.064;19.970;2023-05-12T04:33:23;99544.00;;;11.33;63.49
21086;BME280;34247;50.064;19.970;2023-05-12T04:34:27;99549.97;;;11.37;63.35
21086;BME280;34247;50.064;19.970;2023-05-12T04:35:34;99547.31;;;11.37;63.58
21086;BME280;34247;50.064;19.970;2023-05-12T04:36:38;99551.47;;;11.41;63.28
21086;BME280;34247;50.064;19.970;2023-05-12T04:37:45;99549.44;;;11.44;63.48
21086;BME280;34247;50.064;19.970;2023-05-12T04:38:49;99548.59;;;11.44;63.67
21086;BME280;34247;50.064;19.970;2023-05-12T04:39:54;99549.81;;;11.52;63.06
21086;BME280;34247;50.064;19.970;2023-05-12T04:40:59;99554.91;;;11.55;62.91
21086;BME280;34247;50.064;19.970;2023-05-12T04:42:04;99544.38;;;11.54;63.30
21086;BME280;34247;50.064;19.970;2023-05-12T04:43:09;99550.25;;;11.59;63.01
21086;BME280;34247;50.064;19.970;2023-05-12T04:44:33;99545.97;;;11.56;62.91
21086;BME280;34247;50.064;19.970;2023-05-12T04:45:38;99546.06;;;11.55;63.13
21086;BME280;34247;50.064;19.970;2023-05-12T04:46:45;99553.81;;;11.58;63.06
21086;BME280;34247;50.064;19.970;2023-05-12T04:47:49;99552.78;;;11.60;63.29
21086;BME280;34247;50.064;19.970;2023-05-12T04:48:53;99549.72;;;11.67;63.04
21086;BME280;34247;50.064;19.970;2023-05-12T04:49:58;99550.44;;;11.69;63.01
21086;BME280;34247;50.064;19.970;2023-05-12T04:51:02;99554.69;;;11.71;63.25
21086;BME280;34247;50.064;19.970;2023-05-12T04:52:09;99555.00;;;11.79;63.04
21086;BME280;34247;50.064;19.970;2023-05-12T04:53:16;99550.16;;;11.86;62.35
21086;BME280;34247;50.064;19.970;2023-05-12T04:54:23;99558.78;;;11.90;62.48
21086;BME280;34247;50.064;19.970;2023-05-12T04:55:27;99555.72;;;11.96;62.27
21086;BME280;34247;50.064;19.970;2023-05-12T04:56:32;99560.91;;;11.97;62.05
21086;BME280;34247;50.064;19.970;2023-05-12T04:57:36;99553.91;;;11.96;61.75
21086;BME280;34247;50.064;19.970;2023-05-12T04:58:44;99563.69;;;11.96;61.95
21086;BME280;34247;50.064;19.970;2023-05-12T04:59:48;99564.19;;;12.01;61.89
21086;BME280;34247;50.064;19.970;2023-05-12T05:00:52;99567.28;;;12.07;62.08
21086;BME280;34247;50.064;19.970;2023-05-12T05:01:57;99562.19;;;12.04;61.85
21086;BME280;34247;50.064;19.970;2023-05-12T05:03:00;99558.16;;;12.11;62.00
21086;BME280;34247;50.064;19.970;2023-05-12T05:04:04;99556.75;;;12.19;61.78
21086;BME280;34247;50.064;19.970;2023-05-12T05:05:08;99555.78;;;12.20;61.44
21086;BME280;34247;50.064;19.970;2023-05-12T05:06:16;99558.34;;;12.21;61.43
21086;BME280;34247;50.064;19.970;2023-05-12T05:07:21;99559.72;;;12.27;61.51
21086;BME280;34247;50.064;19.970;2023-05-12T05:08:24;99561.31;;;12.29;61.38
21086;BME280;34247;50.064;19.970;2023-05-12T05:09:29;99564.63;;;12.33;61.23
21086;BME280;34247;50.064;19.970;2023-05-12T05:10:33;99557.25;;;12.36;61.25
21086;BME280;34247;50.064;19.970;2023-05-12T05:11:37;99568.59;;;12.51;61.05
21086;BME280;34247;50.064;19.970;2023-05-12T05:12:42;99564.09;;;12.64;60.90
21086;BME280;34247;50.064;19.970;2023-05-12T05:13:46;99553.53;;;12.76;60.67
21086;BME280;34247;50.064;19.970;2023-05-12T05:14:50;99566.34;;;12.94;59.84
21086;BME280;34247;50.064;19.970;2023-05-12T05:15:54;99563.38;;;13.10;59.26
21086;BME280;34247;50.064;19.970;2023-05-12T05:17:01;99564.84;;;13.27;58.49
21086;BME280;34247;50.064;19.970;2023-05-12T05:18:06;99562.97;;;13.40;58.20
21086;BME280;34247;50.064;19.970;2023-05-12T05:19:10;99564.28;;;13.46;58.14
21086;BME280;34247;50.064;19.970;2023-05-12T05:20:28;99562.88;;;13.53;57.57
21086;BME280;34247;50.064;19.970;2023-05-12T05:21:32;99566.50;;;13.52;57.49
21086;BME280;34247;50.064;19.970;2023-05-12T05:22:38;99570.88;;;13.53;57.41
21086;BME280;34247;50.064;19.970;2023-05-12T05:23:42;99567.00;;;13.57;57.18
21086;BME280;34247;50.064;19.970;2023-05-12T05:24:46;99565.16;;;13.46;56.98
21086;BME280;34247;50.064;19.970;2023-05-12T05:25:49;99566.22;;;13.33;57.50
21086;BME280;34247;50.064;19.970;2023-05-12T05:26:54;99562.97;;;13.40;57.51
21086;BME280;34247;50.064;19.970;2023-05-12T05:27:58;99564.88;;;13.38;57.68
21086;BME280;34247;50.064;19.970;2023-05-12T05:29:04;99568.75;;;13.34;58.09
21086;BME280;34247;50.064;19.970;2023-05-12T05:30:09;99572.88;;;13.38;57.97
21086;BME280;34247;50.064;19.970;2023-05-12T05:31:16;99570.47;;;13.46;57.84
21086;BME280;34247;50.064;19.970;2023-05-12T05:32:20;99567.22;;;13.54;58.12
21086;BME280;34247;50.064;19.970;2023-05-12T05:33:24;99569.34;;;13.73;57.85
21086;BME280;34247;50.064;19.970;2023-05-12T05:34:28;99574.34;;;13.89;57.31
21086;BME280;34247;50.064;19.970;2023-05-12T05:35:32;99578.53;;;14.15;56.71
21086;BME280;34247;50.064;19.970;2023-05-12T05:36:36;99573.31;;;14.47;56.01
21086;BME280;34247;50.064;19.970;2023-05-12T05:37:40;99573.78;;;14.75;55.40
21086;BME280;34247;50.064;19.970;2023-05-12T05:38:45;99576.38;;;15.08;54.42
21086;BME280;34247;50.064;19.970;2023-05-12T05:39:52;99575.59;;;15.29;52.95